Time;durP1;ratioP1;P1;durP2;ratioP2;P2;SDS_P1;SDS_P2;PMS_P1;PMS_P2;Temp;Humidity;BMP_temperature;BMP_pressure;BME280_temperature;BME280_humidity;BME280_pressure;Samples;Min_cycle;Max_cycle;Signal;HPM_P1;HPM_P2
2024/03/30 00:03:55;;;;;;;5.72;4.22;;;;;;;;;;10253866;28;20062;-73
2024/03/30 00:08:58;;;;;;;4.65;4.00;;;;;;;;;;10242199;28;20055;-73
2024/03/30 00:14:01;;;;;;;5.35;3.55;;;;;;;;;;10255088;28;20054;-73
2024/03/30 00:19:04;;;;;;;4.05;3.45;;;;;;;;;;10251811;28;20062;-73
2024/03/30 00:24:06;;;;;;;8.38;5.15;;;;;;;;;;10251837;28;20047;-73
2024/03/30 00:29:10;;;;;;;6.03;3.90;;;;;;;;;;10234949;28;20059;-73
2024/03/30 00:34:12;;;;;;;5.75;4.25;;;;;;;;;;10254788;28;20045;-73
2024/03/30 00:39:15;;;;;;;3.63;2.67;;;;;;;;;;10248886;28;20057;-73
2024/03/30 00:44:18;;;;;;;4.22;3.50;;;;;;;;;;10251208;28;20039;-73
2024/03/30 00:49:21;;;;;;;5.80;4.25;;;;;;;;;;10247370;28;20042;-73
2024/03/30 00:54:23;;;;;;;4.07;3.35;;;;;;;;;;10249408;28;20044;-73
2024/03/30 00:59:27;;;;;;;4.45;3.90;;;;;;;;;;10259900;28;20054;-73
2024/03/30 01:04:30;;;;;;;4.15;3.15;;;;;;;;;;10248486;28;20051;-73
2024/03/30 01:09:33;;;;;;;3.42;3.03;;;;;;;;;;10240500;28;20715;-73
2024/03/30 01:14:40;;;;;;;3.80;3.30;;;;;;;;;;10244447;28;20047;-73
2024/03/30 01:19:42;;;;;;;3.42;2.97;;;;;;;;;;10246404;28;20343;-73
2024/03/30 01:24:46;;;;;;;4.75;3.45;;;;;;;;;;10246316;28;20053;-73
2024/03/30 01:29:51;;;;;;;3.90;3.25;;;;;;;;;;10244658;28;20515;-73
2024/03/30 01:34:53;;;;;;;3.88;3.08;;;;;;;;;;10254322;28;20039;-73
2024/03/30 01:39:56;;;;;;;4.53;3.53;;;;;;;;;;10255948;28;20711;-73
2024/03/30 01:45:00;;;;;;;3.38;2.90;;;;;;;;;;10263294;28;20046;-73
2024/03/30 01:50:03;;;;;;;3.45;2.95;;;;;;;;;;10254989;28;20059;-73
2024/03/30 01:55:08;;;;;;;4.25;3.22;;;;;;;;;;10254328;28;20516;-72
2024/03/30 02:00:12;;;;;;;5.40;3.60;;;;;;;;;;10250208;28;20113;-73
2024/03/30 02:05:15;;;;;;;3.88;3.35;;;;;;;;;;10243620;28;20046;-73
2024/03/30 02:10:18;;;;;;;4.03;3.58;;;;;;;;;;10254446;28;20546;-73
2024/03/30 02:15:22;;;;;;;5.07;3.67;;;;;;;;;;10248553;28;20050;-73
2024/03/30 02:20:24;;;;;;;5.00;3.47;;;;;;;;;;10246807;28;20073;-73
2024/03/30 02:25:28;;;;;;;4.72;3.83;;;;;;;;;;10254497;28;20455;-73
2024/03/30 02:30:31;;;;;;;5.50;4.03;;;;;;;;;;10243110;28;20079;-73
2024/03/30 02:35:33;;;;;;;7.78;4.22;;;;;;;;;;10245847;28;20054;-73
2024/03/30 02:40:37;;;;;;;4.90;4.10;;;;;;;;;;10256746;28;20055;-73
2024/03/30 02:45:39;;;;;;;5.50;4.38;;;;;;;;;;10330854;28;20058;-73
2024/03/30 02:50:42;;;;;;;7.03;3.85;;;;;;;;;;10251067;28;20059;-73
2024/03/30 02:55:45;;;;;;;4.80;3.92;;;;;;;;;;10241553;28;20052;-73
2024/03/30 03:00:48;;;;;;;10.00;4.40;;;;;;;;;;10251470;28;20424;-73
2024/03/30 03:05:50;;;;;;;6.13;4.10;;;;;;;;;;10249130;28;20052;-73
2024/03/30 03:10:54;;;;;;;4.80;3.30;;;;;;;;;;10243369;28;20062;-73
2024/03/30 03:15:56;;;;;;;6.97;3.25;;;;;;;;;;10256692;28;20089;-73
2024/03/30 03:20:59;;;;;;;6.38;3.13;;;;;;;;;;10259497;28;20546;-73
2024/03/30 03:26:02;;;;;;;3.25;2.72;;;;;;;;;;10258020;28;20062;-73
2024/03/30 03:31:05;;;;;;;3.50;2.15;;;;;;;;;;10253673;28;20051;-72
2024/03/30 03:36:07;;;;;;;4.20;2.47;;;;;;;;;;10249270;28;20054;-73
2024/03/30 03:41:11;;;;;;;10.20;2.70;;;;;;;;;;10252993;28;20539;-73
2024/03/30 03:46:13;;;;;;;2.38;2.17;;;;;;;;;;10244833;28;20604;-73
2024/03/30 03:51:16;;;;;;;4.47;2.20;;;;;;;;;;10263269;28;20054;-73
2024/03/30 03:56:19;;;;;;;2.42;2.22;;;;;;;;;;10244542;28;20067;-73
2024/03/30 04:01:21;;;;;;;5.38;2.70;;;;;;;;;;10245372;28;20062;-73
2024/03/30 04:06:24;;;;;;;9.27;2.35;;;;;;;;;;10250038;28;20492;-73
2024/03/30 04:11:27;;;;;;;7.47;2.35;;;;;;;;;;10257182;28;20057;-73
2024/03/30 04:16:30;;;;;;;5.38;2.20;;;;;;;;;;10266062;28;20050;-73
2024/03/30 04:21:32;;;;;;;8.23;2.10;;;;;;;;;;10290081;28;20046;-73
2024/03/30 04:26:36;;;;;;;2.28;2.10;;;;;;;;;;10272238;28;20048;-73
2024/03/30 04:31:38;;;;;;;2.47;1.98;;;;;;;;;;10281544;28;20043;-73
2024/03/30 04:36:40;;;;;;;2.83;1.83;;;;;;;;;;10237191;28;20092;-73
2024/03/30 04:41:44;;;;;;;2.25;2.05;;;;;;;;;;10249434;28;20051;-73
2024/03/30 04:46:46;;;;;;;2.30;1.92;;;;;;;;;;10244874;28;20047;-73
2024/03/30 04:51:49;;;;;;;1.73;1.63;;;;;;;;;;10276779;28;20100;-73
2024/03/30 04:56:52;;;;;;;1.85;1.75;;;;;;;;;;10260731;28;20053;-73
2024/03/30 05:01:55;;;;;;;2.15;1.95;;;;;;;;;;10275297;28;20706;-73
2024/03/30 05:06:57;;;;;;;1.70;1.60;;;;;;;;;;10241306;28;20058;-73
2024/03/30 05:12:01;;;;;;;1.98;1.80;;;;;;;;;;10245221;28;20062;-73
2024/03/30 05:17:03;;;;;;;2.60;1.75;;;;;;;;;;10248209;28;20428;-73
2024/03/30 05:22:06;;;;;;;3.30;2.15;;;;;;;;;;10223511;23;20054;-73
2024/03/30 05:27:09;;;;;;;7.55;2.42;;;;;;;;;;10205204;28;20523;-73
2024/03/30 05:32:12;;;;;;;4.20;1.67;;;;;;;;;;10203983;28;20044;-73
2024/03/30 05:37:14;;;;;;;2.72;1.83;;;;;;;;;;10213653;28;20055;-73
2024/03/30 05:42:18;;;;;;;1.95;1.85;;;;;;;;;;10206311;28;20055;-73
2024/03/30 05:47:20;;;;;;;9.15;2.00;;;;;;;;;;10207702;28;20040;-73
2024/03/30 05:52:22;;;;;;;7.13;1.90;;;;;;;;;;10218549;28;20477;-73
2024/03/30 05:57:26;;;;;;;7.03;1.60;;;;;;;;;;10209984;28;20055;-73
2024/03/30 06:02:28;;;;;;;3.38;1.88;;;;;;;;;;10194503;28;20055;-73
2024/03/30 06:07:31;;;;;;;5.35;1.90;;;;;;;;;;10207485;28;20075;-74
2024/03/30 06:12:34;;;;;;;1.90;1.80;;;;;;;;;;10208075;28;20086;-73
2024/03/30 06:17:37;;;;;;;1.52;1.42;;;;;;;;;;10210952;28;20051;-73
2024/03/30 06:22:40;;;;;;;1.45;1.35;;;;;;;;;;10214398;28;20602;-73
2024/03/30 06:27:44;;;;;;;3.22;1.23;;;;;;;;;;10206652;28;20052;-73
2024/03/30 06:32:46;;;;;;;1.58;1.48;;;;;;;;;;10224049;28;20051;-73
2024/03/30 06:37:49;;;;;;;1.98;1.50;;;;;;;;;;10213834;28;20059;-74
2024/03/30 06:48:13;;;;;;;4.15;2.30;;;;;;;;;;10217002;28;20078;-73
2024/03/30 06:53:15;;;;;;;2.25;2.05;;;;;;;;;;10211763;28;20047;-73
2024/03/30 06:58:19;;;;;;;2.40;2.20;;;;;;;;;;10217964;28;20121;-73
2024/03/30 07:03:21;;;;;;;2.15;1.90;;;;;;;;;;10213328;28;20039;-73
2024/03/30 07:08:23;;;;;;;2.05;1.80;;;;;;;;;;10215320;28;20635;-73
2024/03/30 07:13:27;;;;;;;1.77;1.67;;;;;;;;;;10208698;28;20054;-73
2024/03/30 07:18:29;;;;;;;3.05;1.80;;;;;;;;;;10213885;28;20058;-73
2024/03/30 07:23:32;;;;;;;1.92;1.75;;;;;;;;;;10210801;28;20039;-74
2024/03/30 07:28:37;;;;;;;1.75;1.65;;;;;;;;;;10223531;28;20074;-73
2024/03/30 07:33:40;;;;;;;2.00;1.80;;;;;;;;;;10217779;28;20124;-73
2024/03/30 07:38:42;;;;;;;1.80;1.70;;;;;;;;;;10225397;28;20055;-73
2024/03/30 07:43:46;;;;;;;2.13;1.70;;;;;;;;;;10213051;28;20120;-73
2024/03/30 07:48:48;;;;;;;1.75;1.60;;;;;;;;;;10192478;28;20307;-73
2024/03/30 07:53:50;;;;;;;1.80;1.70;;;;;;;;;;10207356;28;20127;-73
2024/03/30 07:58:54;;;;;;;1.90;1.80;;;;;;;;;;10215396;28;20412;-73
2024/03/30 08:03:57;;;;;;;1.60;1.50;;;;;;;;;;10214583;28;20048;-73
2024/03/30 08:08:59;;;;;;;1.48;1.38;;;;;;;;;;10213867;28;20052;-74
2024/03/30 08:14:03;;;;;;;2.40;2.20;;;;;;;;;;10203773;28;20048;-73
2024/03/30 08:19:08;;;;;;;1.95;1.75;;;;;;;;;;10212881;28;20717;-73
2024/03/30 08:24:10;;;;;;;2.22;2.03;;;;;;;;;;10209799;28;20555;-74
2024/03/30 08:29:14;;;;;;;1.80;1.70;;;;;;;;;;10217976;28;20088;-73
2024/03/30 08:34:16;;;;;;;2.15;1.95;;;;;;;;;;10220976;28;20066;-73
2024/03/30 08:39:18;;;;;;;1.95;1.75;;;;;;;;;;10228878;28;20072;-74
2024/03/30 08:44:26;;;;;;;2.33;2.10;;;;;;;;;;10205304;28;20043;-74
2024/03/30 08:49:28;;;;;;;2.45;1.95;;;;;;;;;;10206805;28;20212;-73
2024/03/30 08:54:31;;;;;;;1.88;1.60;;;;;;;;;;10243359;28;20051;-74
2024/03/30 08:59:34;;;;;;;1.95;1.63;;;;;;;;;;10227015;28;20459;-74
2024/03/30 09:04:37;;;;;;;2.60;2.30;;;;;;;;;;10213226;28;20054;-74
2024/03/30 09:09:40;;;;;;;2.67;2.10;;;;;;;;;;10229551;28;20090;-74
2024/03/30 09:14:44;;;;;;;1.98;1.65;;;;;;;;;;10194965;28;20705;-74
2024/03/30 09:19:46;;;;;;;1.92;1.73;;;;;;;;;;10213834;28;20048;-74
2024/03/30 09:24:50;;;;;;;2.42;1.58;;;;;;;;;;10211515;28;20047;-74
2024/03/30 09:29:54;;;;;;;2.42;1.70;;;;;;;;;;10210512;28;20137;-74
2024/03/30 09:34:56;;;;;;;2.20;1.95;;;;;;;;;;10208941;28;20052;-74
2024/03/30 09:39:58;;;;;;;2.85;2.13;;;;;;;;;;10203494;28;20424;-74
2024/03/30 09:45:03;;;;;;;2.38;1.83;;;;;;;;;;10209224;28;20073;-74
2024/03/30 09:50:07;;;;;;;2.63;2.15;;;;;;;;;;10204651;28;20055;-74
2024/03/30 09:55:14;;;;;;;4.07;1.90;;;;;;;;;;10226225;28;20047;-74
2024/03/30 10:00:19;;;;;;;2.95;2.08;;;;;;;;;;10203660;28;20047;-74
2024/03/30 10:05:22;;;;;;;3.30;2.40;;;;;;;;;;10202955;28;20058;-74
2024/03/30 10:10:24;;;;;;;2.20;1.73;;;;;;;;;;10213917;28;20105;-74
2024/03/30 10:15:34;;;;;;;2.60;1.88;;;;;;;;;;10205225;28;20093;-74
2024/03/30 10:20:37;;;;;;;3.33;2.70;;;;;;;;;;10212058;28;20066;-74
2024/03/30 10:25:39;;;;;;;4.20;1.73;;;;;;;;;;10216290;28;20085;-74
2024/03/30 10:30:43;;;;;;;2.60;1.60;;;;;;;;;;10216165;28;20110;-74
2024/03/30 10:35:47;;;;;;;4.95;2.10;;;;;;;;;;10211349;28;20513;-74
2024/03/30 10:40:49;;;;;;;2.10;1.80;;;;;;;;;;10200805;28;20398;-74
2024/03/30 10:45:53;;;;;;;2.13;1.58;;;;;;;;;;10199395;28;20127;-74
2024/03/30 10:50:56;;;;;;;1.58;1.48;;;;;;;;;;10193450;28;20055;-74
2024/03/30 10:55:58;;;;;;;4.10;2.00;;;;;;;;;;10198378;28;20135;-74
2024/03/30 11:01:04;;;;;;;4.07;2.45;;;;;;;;;;10202968;28;20241;-74
2024/03/30 11:06:08;;;;;;;3.42;2.55;;;;;;;;;;10208511;28;20044;-74
2024/03/30 11:11:11;;;;;;;3.22;2.20;;;;;;;;;;10198407;28;20055;-74
2024/03/30 11:16:15;;;;;;;4.80;2.88;;;;;;;;;;10198662;28;20047;-74
2024/03/30 11:27:00;;;;;;;2.42;1.88;;;;;;;;;;10191081;28;20051;-86
2024/03/30 11:32:12;;;;;;;2.38;1.90;;;;;;;;;;10176504;28;20052;-87
2024/03/30 11:37:25;;;;;;;3.85;1.60;;;;;;;;;;10164238;28;20048;-88
2024/03/30 11:42:38;;;;;;;3.25;1.80;;;;;;;;;;10177052;28;20078;-86
2024/03/30 11:47:43;;;;;;;3.38;1.70;;;;;;;;;;10182787;28;20054;-87
2024/03/30 11:52:46;;;;;;;2.17;1.80;;;;;;;;;;10179743;28;20427;-83
2024/03/30 11:57:53;;;;;;;3.78;2.50;;;;;;;;;;10152592;28;20297;-84
2024/03/30 12:02:59;;;;;;;3.78;2.42;;;;;;;;;;10172386;28;20445;-84
2024/03/30 12:08:04;;;;;;;3.30;2.40;;;;;;;;;;10153054;28;20040;-85
2024/03/30 12:13:09;;;;;;;5.30;2.95;;;;;;;;;;10137620;28;20070;-85
2024/03/30 12:18:13;;;;;;;5.05;3.35;;;;;;;;;;10152359;28;20067;-85
2024/03/30 12:23:18;;;;;;;5.78;3.40;;;;;;;;;;10142280;28;20055;-84
2024/03/30 12:28:21;;;;;;;6.60;3.28;;;;;;;;;;10127366;28;20047;-85
2024/03/30 12:33:26;;;;;;;6.22;3.30;;;;;;;;;;10153097;28;20146;-83
2024/03/30 12:38:28;;;;;;;7.55;3.00;;;;;;;;;;10154274;28;20066;-84
2024/03/30 12:43:31;;;;;;;9.68;2.65;;;;;;;;;;10155715;28;20438;-84
2024/03/30 12:48:39;;;;;;;8.73;2.63;;;;;;;;;;10149696;28;20120;-83
2024/03/30 12:53:52;;;;;;;3.70;1.90;;;;;;;;;;10153532;28;20125;-84
2024/03/30 12:58:55;;;;;;;5.55;1.98;;;;;;;;;;10157555;28;20145;-84
2024/03/30 13:04:03;;;;;;;5.72;2.00;;;;;;;;;;10160627;28;20055;-83
2024/03/30 13:09:06;;;;;;;4.25;1.83;;;;;;;;;;10163789;28;20048;-83
2024/03/30 13:14:08;;;;;;;3.30;1.65;;;;;;;;;;10164409;28;20076;-85
2024/03/30 13:19:13;;;;;;;10.70;3.53;;;;;;;;;;10160240;28;20055;-86
2024/03/30 13:24:18;;;;;;;6.27;2.77;;;;;;;;;;10190088;28;20049;-86
2024/03/30 13:29:21;;;;;;;8.65;2.45;;;;;;;;;;10128853;28;20277;-87
2024/03/30 13:34:25;;;;;;;13.82;3.13;;;;;;;;;;10160694;28;20039;-89
2024/03/30 13:39:28;;;;;;;13.02;2.72;;;;;;;;;;10151788;28;20064;-87
2024/03/30 13:44:30;;;;;;;10.27;2.55;;;;;;;;;;10147369;28;20054;-87
2024/03/30 13:49:34;;;;;;;9.68;2.70;;;;;;;;;;10148492;28;20620;-89
2024/03/30 13:54:37;;;;;;;8.43;2.63;;;;;;;;;;10134713;28;20141;-88
2024/03/30 13:59:40;;;;;;;15.57;3.28;;;;;;;;;;10161360;28;20055;-89
2024/03/30 14:04:44;;;;;;;17.00;3.13;;;;;;;;;;10150715;28;20060;-87
2024/03/30 14:09:47;;;;;;;9.05;2.85;;;;;;;;;;10157200;28;20123;-89
2024/03/30 14:14:50;;;;;;;9.43;2.35;;;;;;;;;;10144228;28;20072;-87
2024/03/30 14:19:54;;;;;;;10.23;1.88;;;;;;;;;;10157611;28;20048;-90
2024/03/30 14:24:56;;;;;;;5.60;1.63;;;;;;;;;;10164163;28;20044;-86
2024/03/30 14:29:59;;;;;;;19.45;3.17;;;;;;;;;;10167976;28;20071;-88
2024/03/30 14:35:03;;;;;;;17.95;3.05;;;;;;;;;;10151696;28;20650;-88
2024/03/30 14:40:10;;;;;;;17.60;2.70;;;;;;;;;;10149058;28;20159;-88
2024/03/30 14:45:13;;;;;;;16.63;2.60;;;;;;;;;;10137778;28;20063;-85
2024/03/30 14:50:17;;;;;;;16.70;2.58;;;;;;;;;;10176780;28;20051;-86
2024/03/30 14:55:19;;;;;;;8.18;2.30;;;;;;;;;;10153374;28;20087;-86
2024/03/30 15:00:22;;;;;;;10.48;1.80;;;;;;;;;;10159069;28;20048;-86
2024/03/30 15:05:26;;;;;;;10.48;1.70;;;;;;;;;;10148722;28;20113;-85
2024/03/30 15:10:29;;;;;;;4.07;1.02;;;;;;;;;;10151166;28;20933;-88
2024/03/30 15:15:32;;;;;;;11.63;1.58;;;;;;;;;;10151131;28;20058;-87
2024/03/30 15:20:36;;;;;;;7.03;1.60;;;;;;;;;;10154927;28;20075;-86
2024/03/30 15:25:38;;;;;;;7.60;1.20;;;;;;;;;;10144997;28;20048;-85
2024/03/30 15:36:03;;;;;;;5.32;0.90;;;;;;;;;;10147110;28;20520;-87
2024/03/30 15:41:05;;;;;;;7.35;1.40;;;;;;;;;;10159430;28;20047;-85
2024/03/30 15:46:08;;;;;;;9.98;1.42;;;;;;;;;;10149623;28;20048;-86
2024/03/30 15:51:11;;;;;;;10.60;1.35;;;;;;;;;;10141833;28;20097;-85
2024/03/30 15:56:14;;;;;;;5.03;0.95;;;;;;;;;;10156109;28;20048;-86
2024/03/30 16:01:17;;;;;;;4.85;1.13;;;;;;;;;;10147504;28;20052;-87
2024/03/30 16:06:21;;;;;;;5.90;1.23;;;;;;;;;;10143201;28;20044;-87
2024/03/30 16:11:23;;;;;;;4.30;1.00;;;;;;;;;;10156671;28;20131;-86
2024/03/30 16:16:25;;;;;;;8.82;1.60;;;;;;;;;;10149250;28;20043;-86
2024/03/30 16:21:29;;;;;;;6.53;1.48;;;;;;;;;;10153193;28;20720;-85
2024/03/30 16:26:32;;;;;;;7.32;1.33;;;;;;;;;;10148547;28;20050;-86
2024/03/30 16:31:34;;;;;;;5.28;1.52;;;;;;;;;;10136283;28;20047;-89
2024/03/30 16:36:43;;;;;;;8.38;1.90;;;;;;;;;;10145811;28;20151;-86
2024/03/30 16:41:45;;;;;;;4.63;1.13;;;;;;;;;;10142907;28;20103;-86
2024/03/30 16:46:48;;;;;;;4.95;1.60;;;;;;;;;;10144009;28;20062;-87
2024/03/30 16:51:52;;;;;;;5.45;1.20;;;;;;;;;;10148909;28;20060;-89
2024/03/30 16:56:54;;;;;;;6.10;1.30;;;;;;;;;;10137623;28;20102;-85
2024/03/30 17:01:57;;;;;;;3.75;1.33;;;;;;;;;;10164740;28;20156;-87
2024/03/30 17:07:01;;;;;;;5.93;1.48;;;;;;;;;;10141186;28;21228;-88
2024/03/30 17:12:04;;;;;;;5.90;1.85;;;;;;;;;;10148294;28;20154;-88
2024/03/30 17:17:07;;;;;;;7.45;1.80;;;;;;;;;;10153898;28;20052;-87
2024/03/30 17:22:11;;;;;;;6.93;2.28;;;;;;;;;;10185043;22;20655;-74
2024/03/30 17:27:13;;;;;;;9.23;2.40;;;;;;;;;;10189089;28;20067;-74
2024/03/30 17:32:15;;;;;;;9.05;2.72;;;;;;;;;;10172914;28;20113;-74
2024/03/30 17:37:20;;;;;;;9.68;2.90;;;;;;;;;;10170144;28;20041;-74
2024/03/30 17:42:23;;;;;;;9.63;2.85;;;;;;;;;;10188933;28;20052;-74
2024/03/30 17:47:26;;;;;;;6.68;2.80;;;;;;;;;;10191577;28;20047;-74
2024/03/30 17:52:30;;;;;;;4.85;2.38;;;;;;;;;;10173931;28;20465;-74
2024/03/30 17:57:32;;;;;;;7.13;3.08;;;;;;;;;;10171041;28;20056;-74
2024/03/30 18:02:34;;;;;;;6.63;2.85;;;;;;;;;;10163103;28;20425;-74
2024/03/30 18:07:38;;;;;;;8.00;2.63;;;;;;;;;;10172187;28;20047;-74
2024/03/30 18:12:41;;;;;;;8.88;3.80;;;;;;;;;;10167977;28;20134;-73
2024/03/30 18:17:43;;;;;;;12.32;5.15;;;;;;;;;;10169119;28;20730;-74
2024/03/30 18:22:47;;;;;;;8.35;4.32;;;;;;;;;;10179407;28;20041;-74
2024/03/30 18:27:50;;;;;;;9.43;4.78;;;;;;;;;;10189654;28;20119;-74
2024/03/30 18:32:52;;;;;;;10.15;4.63;;;;;;;;;;10183843;28;20043;-73
2024/03/30 18:37:56;;;;;;;10.40;4.90;;;;;;;;;;10173820;28;20058;-74
2024/03/30 18:42:58;;;;;;;12.27;5.03;;;;;;;;;;10190830;28;20052;-74
2024/03/30 18:48:00;;;;;;;10.93;3.53;;;;;;;;;;10198668;28;20048;-74
2024/03/30 18:53:05;;;;;;;6.32;3.25;;;;;;;;;;10194459;28;20066;-74
2024/03/30 18:58:07;;;;;;;7.43;2.90;;;;;;;;;;10178467;28;20043;-74
2024/03/30 19:03:09;;;;;;;10.07;3.50;;;;;;;;;;10177232;28;20055;-74
2024/03/30 19:08:13;;;;;;;10.25;3.65;;;;;;;;;;10178467;28;20051;-74
2024/03/30 19:13:15;;;;;;;9.68;3.67;;;;;;;;;;10171522;28;20064;-74
2024/03/30 19:18:18;;;;;;;9.98;3.83;;;;;;;;;;10172001;28;20420;-74
2024/03/30 19:23:22;;;;;;;8.63;3.72;;;;;;;;;;10196368;28;20045;-74
2024/03/30 19:28:24;;;;;;;15.65;7.47;;;;;;;;;;10197024;28;20047;-74
2024/03/30 19:33:27;;;;;;;11.30;6.80;;;;;;;;;;10191334;28;20485;-74
2024/03/30 19:38:31;;;;;;;9.05;5.18;;;;;;;;;;10203380;28;20086;-74
2024/03/30 19:43:33;;;;;;;12.02;5.97;;;;;;;;;;10206009;28;20093;-74
2024/03/30 19:48:36;;;;;;;7.88;3.85;;;;;;;;;;10207145;28;20066;-74
2024/03/30 19:53:39;;;;;;;7.38;3.42;;;;;;;;;;10238172;28;20047;-73
2024/03/30 19:58:44;;;;;;;7.85;3.92;;;;;;;;;;10214452;28;20050;-73
2024/03/30 20:03:48;;;;;;;9.55;4.68;;;;;;;;;;10226412;28;20055;-74
2024/03/30 20:08:51;;;;;;;10.60;5.00;;;;;;;;;;10214740;28;20060;-74
2024/03/30 20:13:54;;;;;;;13.30;5.40;;;;;;;;;;10187414;28;20047;-74
2024/03/30 20:18:59;;;;;;;14.02;4.97;;;;;;;;;;10202461;28;20048;-74
2024/03/30 20:24:03;;;;;;;12.05;4.93;;;;;;;;;;10205596;28;20051;-74
2024/03/30 20:29:05;;;;;;;11.95;6.40;;;;;;;;;;10221912;28;20624;-74
2024/03/30 20:34:07;;;;;;;12.85;6.15;;;;;;;;;;10208603;28;20059;-74
2024/03/30 20:39:11;;;;;;;10.35;4.78;;;;;;;;;;10208024;28;20049;-74
2024/03/30 20:44:14;;;;;;;9.68;4.43;;;;;;;;;;10211224;28;20088;-74
2024/03/30 20:49:16;;;;;;;7.18;3.85;;;;;;;;;;10200576;28;20048;-74
2024/03/30 20:54:20;;;;;;;9.95;4.03;;;;;;;;;;10205346;28;20420;-74
2024/03/30 20:59:22;;;;;;;8.85;4.03;;;;;;;;;;10197309;28;20051;-74
2024/03/30 21:04:24;;;;;;;8.18;4.18;;;;;;;;;;10211957;28;20043;-74
2024/03/30 21:09:29;;;;;;;8.90;4.47;;;;;;;;;;10196584;28;20049;-74
2024/03/30 21:14:31;;;;;;;11.73;4.13;;;;;;;;;;10197193;28;20063;-74
2024/03/30 21:19:34;;;;;;;9.23;3.88;;;;;;;;;;10209892;28;20055;-74
2024/03/30 21:24:37;;;;;;;8.93;3.50;;;;;;;;;;10205589;28;20059;-73
2024/03/30 21:29:40;;;;;;;8.05;3.67;;;;;;;;;;10202458;28;20062;-74
2024/03/30 21:34:42;;;;;;;9.40;2.92;;;;;;;;;;10203054;28;20056;-74
2024/03/30 21:39:49;;;;;;;6.20;2.92;;;;;;;;;;10203088;28;20047;-74
2024/03/30 21:44:51;;;;;;;6.53;3.10;;;;;;;;;;10201223;28;20113;-74
2024/03/30 21:49:54;;;;;;;7.13;3.50;;;;;;;;;;10206495;28;20043;-74
2024/03/30 21:54:58;;;;;;;6.35;2.72;;;;;;;;;;10219921;28;20066;-74
2024/03/30 22:00:12;;;;;;;7.13;2.45;;;;;;;;;;10228373;28;20055;-74
2024/03/30 22:05:16;;;;;;;4.15;2.08;;;;;;;;;;10212512;28;20141;-74
2024/03/30 22:11:19;;;;;;;9.27;2.05;;;;;;;;;;10198560;28;20113;-74
2024/03/30 22:16:48;;;;;;;9.23;2.63;;;;;;;;;;10218518;28;20051;-74
2024/03/30 22:21:51;;;;;;;6.28;2.40;;;;;;;;;;10205735;28;20054;-74
2024/03/30 22:26:58;;;;;;;9.13;2.72;;;;;;;;;;10204108;28;20059;-74
2024/03/30 22:32:31;;;;;;;12.45;5.63;;;;;;;;;;10201974;28;20054;-74
2024/03/30 22:37:38;;;;;;;18.25;7.53;;;;;;;;;;10204875;28;20066;-74
2024/03/30 22:42:40;;;;;;;13.98;6.13;;;;;;;;;;10209336;28;20055;-74
2024/03/30 22:47:44;;;;;;;9.75;4.63;;;;;;;;;;10219570;28;20055;-74
2024/03/30 22:52:46;;;;;;;10.07;4.28;;;;;;;;;;10194308;28;20054;-74
2024/03/30 22:57:49;;;;;;;7.22;3.38;;;;;;;;;;10209605;28;20039;-74
2024/03/30 23:02:52;;;;;;;6.55;2.70;;;;;;;;;;10219525;28;20576;-74
2024/03/30 23:07:55;;;;;;;5.82;2.90;;;;;;;;;;10217348;28;20052;-74
2024/03/30 23:12:57;;;;;;;4.68;2.45;;;;;;;;;;10227761;28;20456;-74
2024/03/30 23:23:33;;;;;;;5.55;2.80;;;;;;;;;;10090523;28;20045;-75
2024/03/30 23:28:36;;;;;;;5.78;3.15;;;;;;;;;;10074622;28;20226;-75
2024/03/30 23:33:38;;;;;;;6.30;2.78;;;;;;;;;;10073989;28;20523;-75
2024/03/30 23:38:42;;;;;;;6.72;2.58;;;;;;;;;;10081114;28;20061;-75
2024/03/30 23:43:44;;;;;;;6.53;3.30;;;;;;;;;;10096633;28;20573;-75
2024/03/30 23:48:47;;;;;;;7.53;2.60;;;;;;;;;;10077513;28;20053;-75
2024/03/30 23:53:51;;;;;;;7.85;2.90;;;;;;;;;;10081606;28;20045;-75
2024/03/30 23:58:54;;;;;;;4.25;2.00;;;;;;;;;;10066036;28;20235;-75
